sensor_id;sensor_type;location;lat;lon;timestamp;P1;durP1;ratioP1;P2;durP2;ratioP2
28802;SDS011;15949;55.656;37.422;2023-05-10T00:03:14;12.30;;;5.47;;
28802;SDS011;15949;55.656;37.422;2023-05-10T00:08:20;9.95;;;5.65;;
28802;SDS011;15949;55.656;37.422;2023-05-10T00:13:26;9.45;;;5.65;;
28802;SDS011;15949;55.656;37.422;2023-05-10T00:18:32;10.63;;;5.70;;
28802;SDS011;15949;55.656;37.422;2023-05-10T00:23:37;12.18;;;5.78;;
28802;SDS011;15949;55.656;37.422;2023-05-10T00:28:43;12.68;;;6.13;;
28802;SDS011;15949;55.656;37.422;2023-05-10T00:33:49;10.13;;;5.47;;
28802;SDS011;15949;55.656;37.422;2023-05-10T00:38:54;7.93;;;5.07;;
28802;SDS011;15949;55.656;37.422;2023-05-10T00:44:00;13.13;;;5.35;;
28802;SDS011;15949;55.656;37.422;2023-05-10T00:49:07;10.77;;;5.15;;
28802;SDS011;15949;55.656;37.422;2023-05-10T00:54:13;12.90;;;5.60;;
28802;SDS011;15949;55.656;37.422;2023-05-10T00:59:20;13.90;;;5.43;;
28802;SDS011;15949;55.656;37.422;2023-05-10T01:04:26;11.68;;;5.07;;
28802;SDS011;15949;55.656;37.422;2023-05-10T01:09:33;10.38;;;4.70;;
28802;SDS011;15949;55.656;37.422;2023-05-10T01:14:39;8.77;;;4.63;;
28802;SDS011;15949;55.656;37.422;2023-05-10T01:19:45;10.60;;;5.03;;
28802;SDS011;15949;55.656;37.422;2023-05-10T01:36:17;10.30;;;4.90;;
28802;SDS011;15949;55.656;37.422;2023-05-10T01:47:09;10.32;;;4.72;;
28802;SDS011;15949;55.656;37.422;2023-05-10T01:52:18;10.55;;;5.10;;
28802;SDS011;15949;55.656;37.422;2023-05-10T01:57:29;11.55;;;5.03;;
28802;SDS011;15949;55.656;37.422;2023-05-10T02:02:39;8.70;;;5.22;;
28802;SDS011;15949;55.656;37.422;2023-05-10T02:07:47;8.52;;;5.03;;
28802;SDS011;15949;55.656;37.422;2023-05-10T02:12:54;9.35;;;5.03;;
28802;SDS011;15949;55.656;37.422;2023-05-10T02:18:03;11.07;;;5.13;;
28802;SDS011;15949;55.656;37.422;2023-05-10T02:23:11;8.00;;;5.05;;
28802;SDS011;15949;55.656;37.422;2023-05-10T02:28:17;11.45;;;5.13;;
28802;SDS011;15949;55.656;37.422;2023-05-10T02:33:24;9.43;;;4.78;;
28802;SDS011;15949;55.656;37.422;2023-05-10T02:38:31;9.95;;;4.93;;
28802;SDS011;15949;55.656;37.422;2023-05-10T02:43:38;9.70;;;5.05;;
28802;SDS011;15949;55.656;37.422;2023-05-10T02:48:46;11.27;;;5.30;;
28802;SDS011;15949;55.656;37.422;2023-05-10T02:53:51;10.38;;;5.07;;
28802;SDS011;15949;55.656;37.422;2023-05-10T02:58:59;9.23;;;5.32;;
28802;SDS011;15949;55.656;37.422;2023-05-10T03:04:04;12.05;;;5.53;;
28802;SDS011;15949;55.656;37.422;2023-05-10T03:09:11;11.63;;;4.88;;
28802;SDS011;15949;55.656;37.422;2023-05-10T03:14:34;11.83;;;5.33;;
28802;SDS011;15949;55.656;37.422;2023-05-10T03:20:06;14.05;;;5.03;;
28802;SDS011;15949;55.656;37.422;2023-05-10T03:25:15;10.25;;;5.20;;
28802;SDS011;15949;55.656;37.422;2023-05-10T03:30:22;11.55;;;5.43;;
28802;SDS011;15949;55.656;37.422;2023-05-10T03:35:29;11.80;;;5.28;;
28802;SDS011;15949;55.656;37.422;2023-05-10T03:40:35;12.48;;;5.43;;
28802;SDS011;15949;55.656;37.422;2023-05-10T03:45:40;10.23;;;4.82;;
28802;SDS011;15949;55.656;37.422;2023-05-10T03:50:46;9.57;;;5.55;;
28802;SDS011;15949;55.656;37.422;2023-05-10T03:55:52;10.85;;;5.30;;
28802;SDS011;15949;55.656;37.422;2023-05-10T04:00:57;10.75;;;5.80;;
28802;SDS011;15949;55.656;37.422;2023-05-10T04:06:03;13.93;;;6.10;;
28802;SDS011;15949;55.656;37.422;2023-05-10T04:11:09;13.05;;;6.05;;
28802;SDS011;15949;55.656;37.422;2023-05-10T04:16:16;11.63;;;5.53;;
28802;SDS011;15949;55.656;37.422;2023-05-10T04:21:22;12.45;;;4.90;;
28802;SDS011;15949;55.656;37.422;2023-05-10T04:26:27;16.38;;;5.43;;
28802;SDS011;15949;55.656;37.422;2023-05-10T04:31:33;14.23;;;4.38;;
28802;SDS011;15949;55.656;37.422;2023-05-10T04:36:41;11.30;;;4.47;;
28802;SDS011;15949;55.656;37.422;2023-05-10T04:41:47;12.80;;;4.43;;
28802;SDS011;15949;55.656;37.422;2023-05-10T04:46:52;11.15;;;3.97;;
28802;SDS011;15949;55.656;37.422;2023-05-10T04:51:58;12.23;;;3.85;;
28802;SDS011;15949;55.656;37.422;2023-05-10T04:57:03;13.40;;;3.50;;
28802;SDS011;15949;55.656;37.422;2023-05-10T05:02:09;11.40;;;4.03;;
28802;SDS011;15949;55.656;37.422;2023-05-10T05:07:14;9.35;;;3.88;;
28802;SDS011;15949;55.656;37.422;2023-05-10T05:12:20;11.75;;;3.95;;
28802;SDS011;15949;55.656;37.422;2023-05-10T05:17:26;8.65;;;3.88;;
28802;SDS011;15949;55.656;37.422;2023-05-10T05:22:31;14.65;;;4.05;;
28802;SDS011;15949;55.656;37.422;2023-05-10T05:27:37;9.40;;;3.13;;
28802;SDS011;15949;55.656;37.422;2023-05-10T05:32:43;8.18;;;3.17;;
28802;SDS011;15949;55.656;37.422;2023-05-10T05:37:49;7.45;;;3.17;;
28802;SDS011;15949;55.656;37.422;2023-05-10T05:42:55;7.65;;;2.78;;
28802;SDS011;15949;55.656;37.422;2023-05-10T05:48:00;8.57;;;3.15;;
28802;SDS011;15949;55.656;37.422;2023-05-10T05:53:06;10.25;;;3.25;;
28802;SDS011;15949;55.656;37.422;2023-05-10T05:58:12;11.45;;;2.70;;
28802;SDS011;15949;55.656;37.422;2023-05-10T06:03:18;7.28;;;2.13;;
28802;SDS011;15949;55.656;37.422;2023-05-10T06:08:24;6.13;;;2.33;;
28802;SDS011;15949;55.656;37.422;2023-05-10T06:13:29;10.15;;;2.13;;
28802;SDS011;15949;55.656;37.422;2023-05-10T06:18:37;4.38;;;2.13;;
28802;SDS011;15949;55.656;37.422;2023-05-10T06:23:43;3.67;;;1.95;;
28802;SDS011;15949;55.656;37.422;2023-05-10T06:28:48;12.30;;;2.08;;
28802;SDS011;15949;55.656;37.422;2023-05-10T06:33:54;20.05;;;2.47;;
28802;SDS011;15949;55.656;37.422;2023-05-10T06:39:00;9.30;;;2.00;;
28802;SDS011;15949;55.656;37.422;2023-05-10T06:44:06;8.32;;;2.20;;
28802;SDS011;15949;55.656;37.422;2023-05-10T06:49:11;5.90;;;1.60;;
28802;SDS011;15949;55.656;37.422;2023-05-10T06:54:17;4.68;;;1.70;;
28802;SDS011;15949;55.656;37.422;2023-05-10T06:59:24;6.60;;;1.80;;
28802;SDS011;15949;55.656;37.422;2023-05-10T07:04:30;5.78;;;2.03;;
28802;SDS011;15949;55.656;37.422;2023-05-10T07:09:36;9.90;;;2.47;;
28802;SDS011;15949;55.656;37.422;2023-05-10T07:14:41;9.23;;;2.50;;
28802;SDS011;15949;55.656;37.422;2023-05-10T07:19:47;5.80;;;2.15;;
28802;SDS011;15949;55.656;37.422;2023-05-10T07:24:53;5.45;;;2.13;;
28802;SDS011;15949;55.656;37.422;2023-05-10T07:29:59;6.30;;;2.40;;
28802;SDS011;15949;55.656;37.422;2023-05-10T07:35:05;6.22;;;2.22;;
28802;SDS011;15949;55.656;37.422;2023-05-10T07:40:11;8.02;;;2.33;;
28802;SDS011;15949;55.656;37.422;2023-05-10T07:45:17;7.55;;;2.30;;
28802;SDS011;15949;55.656;37.422;2023-05-10T07:50:23;4.88;;;2.50;;
28802;SDS011;15949;55.656;37.422;2023-05-10T07:55:29;8.07;;;2.30;;
28802;SDS011;15949;55.656;37.422;2023-05-10T08:00:34;4.28;;;2.03;;
28802;SDS011;15949;55.656;37.422;2023-05-10T08:05:40;5.55;;;2.10;;
28802;SDS011;15949;55.656;37.422;2023-05-10T08:10:46;8.95;;;2.25;;
28802;SDS011;15949;55.656;37.422;2023-05-10T08:15:52;21.92;;;3.72;;
28802;SDS011;15949;55.656;37.422;2023-05-10T08:20:58;10.70;;;2.38;;
28802;SDS011;15949;55.656;37.422;2023-05-10T08:26:03;11.95;;;3.10;;
28802;SDS011;15949;55.656;37.422;2023-05-10T08:31:09;8.35;;;2.03;;
28802;SDS011;15949;55.656;37.422;2023-05-10T08:36:15;4.38;;;2.08;;
28802;SDS011;15949;55.656;37.422;2023-05-10T08:41:24;5.00;;;1.85;;
28802;SDS011;15949;55.656;37.422;2023-05-10T08:46:33;3.40;;;1.37;;
28802;SDS011;15949;55.656;37.422;2023-05-10T08:51:42;1.47;;;1.30;;
28802;SDS011;15949;55.656;37.422;2023-05-10T08:56:52;4.47;;;1.60;;
28802;SDS011;15949;55.656;37.422;2023-05-10T09:01:58;6.05;;;1.90;;
28802;SDS011;15949;55.656;37.422;2023-05-10T09:07:05;6.70;;;1.50;;
28802;SDS011;15949;55.656;37.422;2023-05-10T09:12:12;6.50;;;1.88;;
28802;SDS011;15949;55.656;37.422;2023-05-10T09:17:21;4.60;;;2.00;;
28802;SDS011;15949;55.656;37.422;2023-05-10T09:22:32;10.40;;;2.43;;
28802;SDS011;15949;55.656;37.422;2023-05-10T09:27:39;5.43;;;1.70;;
28802;SDS011;15949;55.656;37.422;2023-05-10T09:32:47;6.57;;;1.75;;
28802;SDS011;15949;55.656;37.422;2023-05-10T09:37:54;7.20;;;1.70;;
28802;SDS011;15949;55.656;37.422;2023-05-10T09:48:07;4.13;;;1.50;;
28802;SDS011;15949;55.656;37.422;2023-05-10T09:53:14;6.03;;;1.42;;
28802;SDS011;15949;55.656;37.422;2023-05-10T09:58:20;5.50;;;1.58;;
28802;SDS011;15949;55.656;37.422;2023-05-10T10:03:26;4.38;;;1.45;;
28802;SDS011;15949;55.656;37.422;2023-05-10T10:08:32;4.15;;;1.58;;
28802;SDS011;15949;55.656;37.422;2023-05-10T10:13:37;2.75;;;1.50;;
28802;SDS011;15949;55.656;37.422;2023-05-10T10:18:43;3.72;;;2.53;;
28802;SDS011;15949;55.656;37.422;2023-05-10T10:23:49;5.30;;;2.08;;
28802;SDS011;15949;55.656;37.422;2023-05-10T10:39:35;7.40;;;1.90;;
28802;SDS011;15949;55.656;37.422;2023-05-10T10:44:41;3.75;;;2.03;;
28802;SDS011;15949;55.656;37.422;2023-05-10T10:49:51;5.60;;;1.80;;
28802;SDS011;15949;55.656;37.422;2023-05-10T11:10:38;4.65;;;2.33;;
28802;SDS011;15949;55.656;37.422;2023-05-10T11:15:47;10.38;;;2.75;;
28802;SDS011;15949;55.656;37.422;2023-05-10T11:21:00;6.93;;;2.35;;
28802;SDS011;15949;55.656;37.422;2023-05-10T11:26:12;5.65;;;2.30;;
28802;SDS011;15949;55.656;37.422;2023-05-10T11:31:19;8.25;;;2.28;;
28802;SDS011;15949;55.656;37.422;2023-05-10T11:36:35;8.32;;;2.90;;
28802;SDS011;15949;55.656;37.422;2023-05-10T11:41:41;9.15;;;2.60;;
28802;SDS011;15949;55.656;37.422;2023-05-10T11:46:47;5.25;;;2.80;;
28802;SDS011;15949;55.656;37.422;2023-05-10T11:52:03;5.47;;;2.63;;
28802;SDS011;15949;55.656;37.422;2023-05-10T11:57:12;13.20;;;2.65;;
28802;SDS011;15949;55.656;37.422;2023-05-10T12:02:18;7.53;;;2.42;;
28802;SDS011;15949;55.656;37.422;2023-05-10T12:07:23;5.00;;;2.50;;
28802;SDS011;15949;55.656;37.422;2023-05-10T12:12:38;6.85;;;2.90;;
28802;SDS011;15949;55.656;37.422;2023-05-10T12:17:48;7.30;;;2.47;;
28802;SDS011;15949;55.656;37.422;2023-05-10T12:22:55;7.07;;;2.40;;
28802;SDS011;15949;55.656;37.422;2023-05-10T12:28:05;5.70;;;2.40;;
28802;SDS011;15949;55.656;37.422;2023-05-10T12:33:13;6.05;;;2.20;;
28802;SDS011;15949;55.656;37.422;2023-05-10T12:43:30;7.50;;;2.13;;
28802;SDS011;15949;55.656;37.422;2023-05-10T12:48:37;7.68;;;2.38;;
28802;SDS011;15949;55.656;37.422;2023-05-10T12:53:43;13.05;;;2.67;;
28802;SDS011;15949;55.656;37.422;2023-05-10T12:58:50;10.32;;;3.38;;
28802;SDS011;15949;55.656;37.422;2023-05-10T13:03:56;8.32;;;2.20;;
28802;SDS011;15949;55.656;37.422;2023-05-10T13:09:02;4.72;;;2.25;;
28802;SDS011;15949;55.656;37.422;2023-05-10T13:14:07;6.30;;;2.38;;
28802;SDS011;15949;55.656;37.422;2023-05-10T13:19:13;4.53;;;2.08;;
28802;SDS011;15949;55.656;37.422;2023-05-10T13:24:19;7.93;;;2.50;;
28802;SDS011;15949;55.656;37.422;2023-05-10T13:29:25;7.10;;;2.55;;
28802;SDS011;15949;55.656;37.422;2023-05-10T13:34:31;32.00;;;20.55;;
28802;SDS011;15949;55.656;37.422;2023-05-10T13:39:37;15.80;;;7.00;;
28802;SDS011;15949;55.656;37.422;2023-05-10T13:44:42;17.83;;;10.75;;
28802;SDS011;15949;55.656;37.422;2023-05-10T13:49:48;24.00;;;13.35;;
28802;SDS011;15949;55.656;37.422;2023-05-10T13:54:54;9.10;;;2.63;;
28802;SDS011;15949;55.656;37.422;2023-05-10T14:00:02;9.18;;;2.50;;
28802;SDS011;15949;55.656;37.422;2023-05-10T14:05:08;5.22;;;2.40;;
28802;SDS011;15949;55.656;37.422;2023-05-10T14:10:14;6.32;;;3.20;;
28802;SDS011;15949;55.656;37.422;2023-05-10T14:15:20;5.13;;;2.70;;
28802;SDS011;15949;55.656;37.422;2023-05-10T14:20:25;4.63;;;2.25;;
28802;SDS011;15949;55.656;37.422;2023-05-10T14:25:31;5.15;;;2.40;;
28802;SDS011;15949;55.656;37.422;2023-05-10T14:30:38;8.63;;;2.03;;
28802;SDS011;15949;55.656;37.422;2023-05-10T14:35:44;3.83;;;2.17;;
28802;SDS011;15949;55.656;37.422;2023-05-10T14:40:50;9.18;;;2.30;;
28802;SDS011;15949;55.656;37.422;2023-05-10T14:45:56;6.70;;;2.60;;
28802;SDS011;15949;55.656;37.422;2023-05-10T14:51:01;7.70;;;3.00;;
28802;SDS011;15949;55.656;37.422;2023-05-10T14:56:07;7.85;;;2.72;;
28802;SDS011;15949;55.656;37.422;2023-05-10T15:01:13;6.47;;;2.20;;
28802;SDS011;15949;55.656;37.422;2023-05-10T15:06:22;3.75;;;2.22;;
28802;SDS011;15949;55.656;37.422;2023-05-10T15:11:30;8.05;;;2.58;;
28802;SDS011;15949;55.656;37.422;2023-05-10T15:16:35;4.80;;;2.30;;
28802;SDS011;15949;55.656;37.422;2023-05-10T15:21:41;6.53;;;2.50;;
28802;SDS011;15949;55.656;37.422;2023-05-10T15:26:49;13.73;;;2.58;;
28802;SDS011;15949;55.656;37.422;2023-05-10T15:31:55;6.97;;;2.10;;
28802;SDS011;15949;55.656;37.422;2023-05-10T15:37:01;11.63;;;2.85;;
28802;SDS011;15949;55.656;37.422;2023-05-10T15:42:06;9.45;;;2.67;;
28802;SDS011;15949;55.656;37.422;2023-05-10T15:47:12;8.43;;;2.60;;
28802;SDS011;15949;55.656;37.422;2023-05-10T15:52:17;5.25;;;2.50;;
28802;SDS011;15949;55.656;37.422;2023-05-10T15:57:23;8.95;;;2.97;;
28802;SDS011;15949;55.656;37.422;2023-05-10T16:02:29;6.20;;;2.35;;
28802;SDS011;15949;55.656;37.422;2023-05-10T16:07:34;8.88;;;2.80;;
28802;SDS011;15949;55.656;37.422;2023-05-10T16:12:40;8.57;;;2.28;;
28802;SDS011;15949;55.656;37.422;2023-05-10T16:17:46;13.82;;;2.80;;
28802;SDS011;15949;55.656;37.422;2023-05-10T16:22:51;14.35;;;2.80;;
28802;SDS011;15949;55.656;37.422;2023-05-10T16:27:57;5.45;;;2.55;;
28802;SDS011;15949;55.656;37.422;2023-05-10T16:33:04;7.22;;;2.70;;
28802;SDS011;15949;55.656;37.422;2023-05-10T16:38:09;16.58;;;2.67;;
28802;SDS011;15949;55.656;37.422;2023-05-10T16:43:15;6.93;;;3.10;;
28802;SDS011;15949;55.656;37.422;2023-05-10T16:48:21;8.57;;;3.00;;
28802;SDS011;15949;55.656;37.422;2023-05-10T16:53:28;12.07;;;2.88;;
28802;SDS011;15949;55.656;37.422;2023-05-10T16:58:33;10.02;;;3.78;;
28802;SDS011;15949;55.656;37.422;2023-05-10T17:03:39;9.40;;;3.67;;
28802;SDS011;15949;55.656;37.422;2023-05-10T17:08:44;13.25;;;4.82;;
28802;SDS011;15949;55.656;37.422;2023-05-10T17:13:50;15.10;;;5.57;;
28802;SDS011;15949;55.656;37.422;2023-05-10T17:18:56;14.43;;;4.85;;
28802;SDS011;15949;55.656;37.422;2023-05-10T17:24:02;19.58;;;5.38;;
28802;SDS011;15949;55.656;37.422;2023-05-10T17:29:08;31.58;;;15.25;;
28802;SDS011;15949;55.656;37.422;2023-05-10T17:34:14;37.25;;;24.98;;
28802;SDS011;15949;55.656;37.422;2023-05-10T17:39:20;29.90;;;11.30;;
28802;SDS011;15949;55.656;37.422;2023-05-10T17:44:26;24.85;;;9.60;;
28802;SDS011;15949;55.656;37.422;2023-05-10T17:49:31;36.58;;;12.05;;
28802;SDS011;15949;55.656;37.422;2023-05-10T17:54:37;33.97;;;18.10;;
28802;SDS011;15949;55.656;37.422;2023-05-10T17:59:42;44.85;;;23.33;;
28802;SDS011;15949;55.656;37.422;2023-05-10T18:04:48;44.95;;;23.85;;
28802;SDS011;15949;55.656;37.422;2023-05-10T18:09:54;47.92;;;21.48;;
28802;SDS011;15949;55.656;37.422;2023-05-10T18:15:01;27.98;;;13.25;;
28802;SDS011;15949;55.656;37.422;2023-05-10T18:20:07;38.25;;;15.48;;
28802;SDS011;15949;55.656;37.422;2023-05-10T18:25:13;40.15;;;15.00;;
28802;SDS011;15949;55.656;37.422;2023-05-10T18:30:19;25.95;;;10.90;;
28802;SDS011;15949;55.656;37.422;2023-05-10T18:35:25;26.67;;;10.38;;
28802;SDS011;15949;55.656;37.422;2023-05-10T18:40:30;20.98;;;7.10;;
28802;SDS011;15949;55.656;37.422;2023-05-10T18:45:36;15.63;;;8.40;;
28802;SDS011;15949;55.656;37.422;2023-05-10T18:50:43;23.45;;;9.40;;
28802;SDS011;15949;55.656;37.422;2023-05-10T18:55:55;23.40;;;8.10;;
28802;SDS011;15949;55.656;37.422;2023-05-10T19:01:04;25.08;;;8.85;;
28802;SDS011;15949;55.656;37.422;2023-05-10T19:06:10;17.80;;;6.22;;
28802;SDS011;15949;55.656;37.422;2023-05-10T19:11:16;27.92;;;5.95;;
28802;SDS011;15949;55.656;37.422;2023-05-10T19:16:21;13.98;;;5.40;;
28802;SDS011;15949;55.656;37.422;2023-05-10T19:21:27;22.75;;;6.18;;
28802;SDS011;15949;55.656;37.422;2023-05-10T19:26:33;14.32;;;5.63;;
28802;SDS011;15949;55.656;37.422;2023-05-10T19:31:38;19.23;;;5.85;;
28802;SDS011;15949;55.656;37.422;2023-05-10T19:36:44;12.50;;;5.05;;
28802;SDS011;15949;55.656;37.422;2023-05-10T19:41:50;15.15;;;5.45;;
28802;SDS011;15949;55.656;37.422;2023-05-10T19:46:55;14.43;;;5.38;;
28802;SDS011;15949;55.656;37.422;2023-05-10T19:52:01;13.95;;;6.45;;
28802;SDS011;15949;55.656;37.422;2023-05-10T19:57:07;13.65;;;6.00;;
28802;SDS011;15949;55.656;37.422;2023-05-10T20:02:13;17.17;;;5.40;;
28802;SDS011;15949;55.656;37.422;2023-05-10T20:07:19;13.10;;;4.85;;
28802;SDS011;15949;55.656;37.422;2023-05-10T20:12:24;14.70;;;4.80;;
28802;SDS011;15949;55.656;37.422;2023-05-10T20:17:30;16.38;;;4.97;;
28802;SDS011;15949;55.656;37.422;2023-05-10T20:22:36;14.02;;;4.82;;
28802;SDS011;15949;55.656;37.422;2023-05-10T20:27:41;12.25;;;5.20;;
28802;SDS011;15949;55.656;37.422;2023-05-10T20:32:47;12.55;;;4.93;;
28802;SDS011;15949;55.656;37.422;2023-05-10T20:37:53;15.73;;;4.88;;
28802;SDS011;15949;55.656;37.422;2023-05-10T20:42:59;13.43;;;5.03;;
28802;SDS011;15949;55.656;37.422;2023-05-10T20:48:05;17.13;;;5.63;;
28802;SDS011;15949;55.656;37.422;2023-05-10T20:53:11;13.85;;;5.63;;
28802;SDS011;15949;55.656;37.422;2023-05-10T20:58:18;15.35;;;5.45;;
28802;SDS011;15949;55.656;37.422;2023-05-10T21:03:24;12.82;;;5.07;;
28802;SDS011;15949;55.656;37.422;2023-05-10T21:08:30;31.83;;;16.17;;
28802;SDS011;15949;55.656;37.422;2023-05-10T21:13:35;53.95;;;29.98;;
28802;SDS011;15949;55.656;37.422;2023-05-10T21:18:41;23.67;;;9.63;;
28802;SDS011;15949;55.656;37.422;2023-05-10T21:23:47;14.57;;;6.10;;
28802;SDS011;15949;55.656;37.422;2023-05-10T21:28:53;13.25;;;6.03;;
28802;SDS011;15949;55.656;37.422;2023-05-10T21:33:58;13.93;;;5.25;;
28802;SDS011;15949;55.656;37.422;2023-05-10T21:39:04;14.02;;;6.35;;
28802;SDS011;15949;55.656;37.422;2023-05-10T21:44:09;15.35;;;6.95;;
28802;SDS011;15949;55.656;37.422;2023-05-10T21:49:15;12.35;;;5.90;;
28802;SDS011;15949;55.656;37.422;2023-05-10T21:54:21;19.77;;;6.50;;
28802;SDS011;15949;55.656;37.422;2023-05-10T21:59:26;19.95;;;6.68;;
28802;SDS011;15949;55.656;37.422;2023-05-10T22:04:32;19.15;;;6.25;;
28802;SDS011;15949;55.656;37.422;2023-05-10T22:09:38;16.50;;;7.30;;
28802;SDS011;15949;55.656;37.422;2023-05-10T22:14:44;27.05;;;10.00;;
28802;SDS011;15949;55.656;37.422;2023-05-10T22:19:50;21.13;;;9.60;;
28802;SDS011;15949;55.656;37.422;2023-05-10T22:24:55;18.55;;;8.02;;
28802;SDS011;15949;55.656;37.422;2023-05-10T22:30:01;19.48;;;7.57;;
28802;SDS011;15949;55.656;37.422;2023-05-10T22:35:08;64.60;;;39.60;;
28802;SDS011;15949;55.656;37.422;2023-05-10T22:40:14;27.98;;;15.10;;
28802;SDS011;15949;55.656;37.422;2023-05-10T22:45:19;22.25;;;10.85;;
28802;SDS011;15949;55.656;37.422;2023-05-10T22:50:25;23.10;;;7.53;;
28802;SDS011;15949;55.656;37.422;2023-05-10T22:55:31;11.02;;;6.22;;
28802;SDS011;15949;55.656;37.422;2023-05-10T23:00:37;18.23;;;6.75;;
28802;SDS011;15949;55.656;37.422;2023-05-10T23:05:42;21.58;;;8.10;;
28802;SDS011;15949;55.656;37.422;2023-05-10T23:10:48;23.90;;;11.80;;
28802;SDS011;15949;55.656;37.422;2023-05-10T23:15:54;37.97;;;21.20;;
28802;SDS011;15949;55.656;37.422;2023-05-10T23:20:59;27.80;;;16.65;;
28802;SDS011;15949;55.656;37.422;2023-05-10T23:26:05;25.08;;;11.02;;
28802;SDS011;15949;55.656;37.422;2023-05-10T23:31:11;28.02;;;10.82;;
28802;SDS011;15949;55.656;37.422;2023-05-10T23:36:17;18.13;;;7.07;;
28802;SDS011;15949;55.656;37.422;2023-05-10T23:41:22;20.40;;;6.55;;
28802;SDS011;15949;55.656;37.422;2023-05-10T23:46:28;18.13;;;7.78;;
28802;SDS011;15949;55.656;37.422;2023-05-10T23:51:34;22.33;;;7.85;;
28802;SDS011;15949;55.656;37.422;2023-05-10T23:56:40;33.33;;;7.65;;
